createdAt,value
2023-03-29T00:03:24.760Z,6.60
2023-03-29T00:13:48.165Z,6.70
2023-03-29T00:24:09.596Z,6.80
2023-03-29T00:34:32.831Z,7.30
2023-03-29T00:45:04.398Z,7.00
2023-03-29T00:55:30.529Z,6.90
2023-03-29T01:05:57.984Z,6.90
2023-03-29T01:16:22.651Z,7.10
2023-03-29T01:26:51.838Z,7.10
2023-03-29T01:37:21.910Z,7.20
2023-03-29T01:47:51.518Z,7.20
2023-03-29T01:58:18.273Z,7.10
2023-03-29T02:08:42.571Z,7.00
2023-03-29T02:19:06.731Z,7.10
2023-03-29T02:29:29.629Z,7.10
2023-03-29T02:39:54.883Z,7.10
2023-03-29T02:50:16.809Z,7.40
2023-03-29T03:00:44.711Z,7.30
2023-03-29T03:11:07.019Z,6.80
2023-03-29T03:21:29.740Z,6.70
2023-03-29T03:31:53.800Z,6.90
2023-03-29T03:42:52.867Z,6.50
2023-03-29T03:53:15.010Z,6.70
2023-03-29T04:03:56.757Z,6.50
2023-03-29T04:14:20.457Z,6.50
2023-03-29T04:25:03.812Z,7.00
2023-03-29T04:35:34.980Z,6.70
2023-03-29T04:45:59.301Z,6.50
2023-03-29T04:56:39.859Z,6.70
2023-03-29T05:07:26.927Z,6.60
2023-03-29T05:17:49.073Z,6.80
2023-03-29T05:28:12.860Z,7.10
2023-03-29T05:38:35.778Z,7.30
2023-03-29T05:48:59.611Z,7.90
2023-03-29T05:59:37.018Z,8.10
2023-03-29T06:10:00.307Z,8.40
2023-03-29T06:20:22.711Z,8.50
2023-03-29T06:30:51.379Z,8.50
2023-03-29T06:41:13.631Z,8.70
2023-03-29T06:51:57.029Z,8.90
2023-03-29T07:02:18.869Z,9.10
2023-03-29T07:12:47.213Z,9.60
2023-03-29T07:23:11.462Z,9.90
2023-03-29T07:33:43.144Z,10.30
2023-03-29T07:44:09.088Z,11.50
2023-03-29T07:54:32.988Z,11.60
2023-03-29T08:05:10.951Z,11.90
2023-03-29T08:15:53.910Z,12.30
2023-03-29T08:26:24.618Z,12.30
2023-03-29T08:36:47.952Z,12.60
2023-03-29T08:47:26.615Z,12.80
2023-03-29T08:57:52.436Z,14.00
2023-03-29T09:08:24.193Z,13.70
2023-03-29T09:19:02.559Z,14.80
2023-03-29T09:29:46.154Z,14.90
2023-03-29T09:40:16.564Z,14.60
2023-03-29T09:51:03.045Z,16.40
2023-03-29T10:01:37.867Z,15.70
2023-03-29T10:12:03.441Z,16.80
2023-03-29T10:22:28.415Z,16.60
2023-03-29T10:32:58.023Z,15.20
2023-03-29T10:43:27.081Z,15.60
2023-03-29T10:53:49.049Z,16.20
2023-03-29T11:04:22.988Z,16.30
2023-03-29T11:14:56.999Z,15.90
2023-03-29T11:25:29.708Z,15.50
2023-03-29T11:35:57.526Z,15.80
2023-03-29T11:46:26.447Z,15.50
2023-03-29T11:56:52.767Z,15.50
2023-03-29T12:07:20.580Z,15.40
2023-03-29T12:17:46.905Z,16.70
2023-03-29T12:28:28.441Z,15.90
2023-03-29T12:38:53.692Z,15.90
2023-03-29T12:49:38.669Z,16.40
2023-03-29T13:00:13.981Z,16.80
2023-03-29T13:10:40.692Z,16.10
2023-03-29T13:21:11.597Z,16.50
2023-03-29T13:31:40.417Z,15.90
2023-03-29T13:42:19.708Z,15.90
2023-03-29T13:52:49.947Z,16.20
2023-03-29T14:03:15.478Z,15.60
2023-03-29T14:13:38.555Z,16.00
2023-03-29T14:24:05.326Z,15.90
2023-03-29T14:34:28.681Z,16.10
2023-03-29T14:44:51.704Z,15.70
2023-03-29T14:55:18.196Z,15.80
2023-03-29T15:05:43.863Z,15.90
2023-03-29T15:16:08.365Z,16.00
2023-03-29T15:26:32.393Z,16.00
2023-03-29T15:36:57.280Z,16.20
2023-03-29T15:47:18.899Z,16.30
2023-03-29T15:57:43.167Z,16.20
2023-03-29T16:08:05.006Z,16.30
2023-03-29T16:18:27.945Z,16.20
2023-03-29T16:28:49.391Z,16.00
2023-03-29T16:39:13.724Z,15.80
2023-03-29T16:49:35.427Z,15.60
2023-03-29T16:59:57.983Z,15.60
2023-03-29T17:10:20.050Z,15.40
2023-03-29T17:20:43.301Z,15.50
2023-03-29T17:31:07.360Z,15.40
2023-03-29T17:41:31.062Z,15.30
2023-03-29T17:51:53.047Z,15.30
2023-03-29T18:02:17.764Z,15.30
2023-03-29T18:12:39.651Z,15.40
2023-03-29T18:23:02.719Z,15.30
2023-03-29T18:33:25.708Z,15.20
2023-03-29T18:43:48.424Z,15.10
2023-03-29T18:54:09.922Z,15.00
2023-03-29T19:04:33.389Z,15.00
2023-03-29T19:14:55.105Z,15.00
2023-03-29T19:25:18.070Z,14.90
2023-03-29T19:35:39.430Z,15.00
2023-03-29T19:46:10.348Z,15.40
2023-03-29T19:56:33.071Z,15.00
2023-03-29T20:06:57.611Z,15.00
2023-03-29T20:17:19.414Z,14.90
2023-03-29T20:27:42.981Z,15.30
2023-03-29T20:38:04.771Z,14.90
2023-03-29T20:48:31.196Z,15.20
2023-03-29T20:58:55.694Z,14.80
2023-03-29T21:09:19.149Z,14.70
2023-03-29T21:19:41.288Z,14.70
2023-03-29T21:30:04.760Z,14.50
2023-03-29T21:40:26.180Z,14.60
2023-03-29T21:50:50.918Z,14.60
2023-03-29T22:01:12.317Z,14.50
2023-03-29T22:11:35.543Z,14.40
2023-03-29T22:22:01.250Z,14.40
2023-03-29T22:32:24.243Z,14.50
2023-03-29T22:42:46.052Z,14.50
2023-03-29T22:53:09.110Z,14.60
2023-03-29T23:03:30.511Z,14.60
2023-03-29T23:13:53.967Z,14.60
2023-03-29T23:24:18.384Z,14.50
2023-03-29T23:34:42.144Z,14.50
2023-03-29T23:45:04.351Z,14.50
2023-03-29T23:55:27.541Z,14.40
